Terminal Aerodrome Forecast
Issued by NWS

Home | Current Version | Previous Version | Text Only | Print | Product List | Glossary On
Versions: 1 2 3 4 5 6 7 8 9 10 11 12
778
FTUS45 KABQ 151722
TAFSAF
TAF
KSAF 151722Z 1518/1618 36012KT P6SM SKC
     FM152000 32007KT P6SM SKC
     FM160600 35007KT P6SM FEW250
     FM161400 36013KT P6SM SCT200=

USA.gov is the U.S. government's official web portal to all federal, state and local government web resources and services.